sensor_id;sensor_type;location;lat;lon;timestamp;P1;durP1;ratioP1;P2;durP2;ratioP2
74510;SDS011;62991;50.040;18.400;2023-06-22T00:00:07;6.40;;;2.78;;
74510;SDS011;62991;50.040;18.400;2023-06-22T00:03:11;8.68;;;3.03;;
74510;SDS011;62991;50.040;18.400;2023-06-22T00:06:12;7.95;;;2.97;;
74510;SDS011;62991;50.040;18.400;2023-06-22T00:09:13;9.32;;;2.95;;
74510;SDS011;62991;50.040;18.400;2023-06-22T00:12:13;9.85;;;3.95;;
74510;SDS011;62991;50.040;18.400;2023-06-22T00:15:14;10.85;;;3.47;;
74510;SDS011;62991;50.040;18.400;2023-06-22T00:18:15;8.15;;;4.30;;
74510;SDS011;62991;50.040;18.400;2023-06-22T00:21:15;9.52;;;3.38;;
74510;SDS011;62991;50.040;18.400;2023-06-22T00:24:16;8.00;;;4.10;;
74510;SDS011;62991;50.040;18.400;2023-06-22T00:27:17;11.73;;;3.97;;
74510;SDS011;62991;50.040;18.400;2023-06-22T00:30:18;12.95;;;3.50;;
74510;SDS011;62991;50.040;18.400;2023-06-22T00:33:19;10.10;;;3.58;;
74510;SDS011;62991;50.040;18.400;2023-06-22T00:36:20;10.30;;;3.53;;
74510;SDS011;62991;50.040;18.400;2023-06-22T00:39:20;7.28;;;3.13;;
74510;SDS011;62991;50.040;18.400;2023-06-22T00:42:21;9.23;;;2.70;;
74510;SDS011;62991;50.040;18.400;2023-06-22T00:45:22;9.32;;;4.03;;
74510;SDS011;62991;50.040;18.400;2023-06-22T00:48:24;8.45;;;3.35;;
74510;SDS011;62991;50.040;18.400;2023-06-22T00:51:25;11.43;;;3.80;;
74510;SDS011;62991;50.040;18.400;2023-06-22T00:54:26;8.15;;;3.35;;
74510;SDS011;62991;50.040;18.400;2023-06-22T00:57:28;10.40;;;3.50;;
74510;SDS011;62991;50.040;18.400;2023-06-22T01:00:29;10.07;;;4.25;;
74510;SDS011;62991;50.040;18.400;2023-06-22T01:03:30;12.20;;;3.40;;
74510;SDS011;62991;50.040;18.400;2023-06-22T01:06:34;9.88;;;3.35;;
74510;SDS011;62991;50.040;18.400;2023-06-22T01:13:02;10.05;;;3.88;;
74510;SDS011;62991;50.040;18.400;2023-06-22T01:16:10;10.57;;;3.80;;
74510;SDS011;62991;50.040;18.400;2023-06-22T01:29:06;8.60;;;3.45;;
74510;SDS011;62991;50.040;18.400;2023-06-22T01:32:12;10.02;;;3.70;;
74510;SDS011;62991;50.040;18.400;2023-06-22T01:35:13;13.70;;;3.60;;
74510;SDS011;62991;50.040;18.400;2023-06-22T01:38:16;11.90;;;4.13;;
74510;SDS011;62991;50.040;18.400;2023-06-22T01:41:17;12.13;;;3.40;;
74510;SDS011;62991;50.040;18.400;2023-06-22T01:44:18;12.90;;;3.97;;
74510;SDS011;62991;50.040;18.400;2023-06-22T01:47:20;9.13;;;3.78;;
74510;SDS011;62991;50.040;18.400;2023-06-22T01:50:21;17.63;;;4.60;;
74510;SDS011;62991;50.040;18.400;2023-06-22T01:53:22;14.18;;;4.72;;
74510;SDS011;62991;50.040;18.400;2023-06-22T01:56:24;12.20;;;4.15;;
74510;SDS011;62991;50.040;18.400;2023-06-22T01:59:32;18.77;;;7.57;;
74510;SDS011;62991;50.040;18.400;2023-06-22T02:02:39;46.70;;;21.05;;
74510;SDS011;62991;50.040;18.400;2023-06-22T02:05:55;26.15;;;11.20;;
74510;SDS011;62991;50.040;18.400;2023-06-22T02:09:02;20.50;;;8.50;;
74510;SDS011;62991;50.040;18.400;2023-06-22T02:12:05;19.05;;;6.63;;
74510;SDS011;62991;50.040;18.400;2023-06-22T02:15:08;10.93;;;4.07;;
74510;SDS011;62991;50.040;18.400;2023-06-22T02:18:12;11.75;;;4.25;;
74510;SDS011;62991;50.040;18.400;2023-06-22T02:21:13;9.95;;;3.67;;
74510;SDS011;62991;50.040;18.400;2023-06-22T02:24:14;10.40;;;3.70;;
74510;SDS011;62991;50.040;18.400;2023-06-22T02:27:15;8.50;;;3.55;;
74510;SDS011;62991;50.040;18.400;2023-06-22T02:30:15;9.23;;;3.47;;
74510;SDS011;62991;50.040;18.400;2023-06-22T02:33:16;10.30;;;4.32;;
74510;SDS011;62991;50.040;18.400;2023-06-22T02:36:17;11.40;;;4.07;;
74510;SDS011;62991;50.040;18.400;2023-06-22T02:39:23;10.00;;;3.58;;
74510;SDS011;62991;50.040;18.400;2023-06-22T02:42:24;10.32;;;4.00;;
74510;SDS011;62991;50.040;18.400;2023-06-22T02:45:25;9.88;;;4.07;;
74510;SDS011;62991;50.040;18.400;2023-06-22T02:48:26;9.90;;;3.25;;
74510;SDS011;62991;50.040;18.400;2023-06-22T02:51:26;11.63;;;3.67;;
74510;SDS011;62991;50.040;18.400;2023-06-22T02:54:27;11.32;;;3.78;;
74510;SDS011;62991;50.040;18.400;2023-06-22T02:57:28;10.50;;;3.20;;
74510;SDS011;62991;50.040;18.400;2023-06-22T03:00:29;11.88;;;3.40;;
74510;SDS011;62991;50.040;18.400;2023-06-22T03:03:30;12.45;;;3.50;;
74510;SDS011;62991;50.040;18.400;2023-06-22T03:06:31;8.63;;;3.40;;
74510;SDS011;62991;50.040;18.400;2023-06-22T03:09:32;11.98;;;3.50;;
74510;SDS011;62991;50.040;18.400;2023-06-22T03:12:32;7.35;;;3.60;;
74510;SDS011;62991;50.040;18.400;2023-06-22T03:15:33;10.48;;;3.83;;
74510;SDS011;62991;50.040;18.400;2023-06-22T03:18:34;9.75;;;3.72;;
74510;SDS011;62991;50.040;18.400;2023-06-22T03:21:35;7.50;;;3.50;;
74510;SDS011;62991;50.040;18.400;2023-06-22T03:24:38;10.88;;;3.47;;
74510;SDS011;62991;50.040;18.400;2023-06-22T03:27:39;10.73;;;4.00;;
74510;SDS011;62991;50.040;18.400;2023-06-22T03:30:44;12.50;;;3.40;;
74510;SDS011;62991;50.040;18.400;2023-06-22T03:33:44;10.30;;;4.18;;
74510;SDS011;62991;50.040;18.400;2023-06-22T03:36:45;7.47;;;3.78;;
74510;SDS011;62991;50.040;18.400;2023-06-22T03:39:45;12.05;;;4.95;;
74510;SDS011;62991;50.040;18.400;2023-06-22T03:42:46;8.80;;;4.30;;
74510;SDS011;62991;50.040;18.400;2023-06-22T03:45:47;10.80;;;4.57;;
74510;SDS011;62991;50.040;18.400;2023-06-22T03:48:47;14.45;;;4.72;;
74510;SDS011;62991;50.040;18.400;2023-06-22T03:51:48;16.85;;;5.28;;
74510;SDS011;62991;50.040;18.400;2023-06-22T03:54:49;12.18;;;5.88;;
74510;SDS011;62991;50.040;18.400;2023-06-22T03:57:49;16.35;;;6.50;;
74510;SDS011;62991;50.040;18.400;2023-06-22T04:00:51;12.98;;;6.45;;
74510;SDS011;62991;50.040;18.400;2023-06-22T04:03:53;16.13;;;6.38;;
74510;SDS011;62991;50.040;18.400;2023-06-22T04:06:53;14.32;;;6.03;;
74510;SDS011;62991;50.040;18.400;2023-06-22T04:09:54;14.32;;;6.05;;
74510;SDS011;62991;50.040;18.400;2023-06-22T04:12:55;14.38;;;6.95;;
74510;SDS011;62991;50.040;18.400;2023-06-22T04:15:56;15.50;;;6.97;;
74510;SDS011;62991;50.040;18.400;2023-06-22T04:18:57;27.00;;;7.78;;
74510;SDS011;62991;50.040;18.400;2023-06-22T04:21:57;14.70;;;7.78;;
74510;SDS011;62991;50.040;18.400;2023-06-22T04:24:58;19.27;;;9.10;;
74510;SDS011;62991;50.040;18.400;2023-06-22T04:27:59;17.58;;;8.40;;
74510;SDS011;62991;50.040;18.400;2023-06-22T04:30:59;15.48;;;7.72;;
74510;SDS011;62991;50.040;18.400;2023-06-22T04:34:02;18.42;;;8.27;;
74510;SDS011;62991;50.040;18.400;2023-06-22T04:37:08;21.50;;;8.43;;
74510;SDS011;62991;50.040;18.400;2023-06-22T04:40:08;16.08;;;7.35;;
74510;SDS011;62991;50.040;18.400;2023-06-22T04:43:09;19.20;;;7.30;;
74510;SDS011;62991;50.040;18.400;2023-06-22T04:46:10;16.92;;;8.40;;
74510;SDS011;62991;50.040;18.400;2023-06-22T04:49:11;20.85;;;10.05;;
74510;SDS011;62991;50.040;18.400;2023-06-22T04:52:12;19.20;;;9.55;;
74510;SDS011;62991;50.040;18.400;2023-06-22T04:55:14;18.92;;;9.13;;
74510;SDS011;62991;50.040;18.400;2023-06-22T04:58:18;18.98;;;8.52;;
74510;SDS011;62991;50.040;18.400;2023-06-22T05:01:19;17.55;;;8.38;;
74510;SDS011;62991;50.040;18.400;2023-06-22T05:04:22;22.45;;;9.63;;
74510;SDS011;62991;50.040;18.400;2023-06-22T05:07:23;22.67;;;10.00;;
74510;SDS011;62991;50.040;18.400;2023-06-22T05:10:25;23.90;;;10.55;;
74510;SDS011;62991;50.040;18.400;2023-06-22T05:13:26;20.60;;;10.68;;
74510;SDS011;62991;50.040;18.400;2023-06-22T05:16:27;27.98;;;12.73;;
74510;SDS011;62991;50.040;18.400;2023-06-22T05:19:27;23.88;;;10.98;;
74510;SDS011;62991;50.040;18.400;2023-06-22T05:22:33;27.38;;;12.68;;
74510;SDS011;62991;50.040;18.400;2023-06-22T05:25:34;23.25;;;10.20;;
74510;SDS011;62991;50.040;18.400;2023-06-22T05:28:34;21.58;;;10.88;;
74510;SDS011;62991;50.040;18.400;2023-06-22T05:31:35;26.83;;;12.07;;
74510;SDS011;62991;50.040;18.400;2023-06-22T05:34:36;26.95;;;11.80;;
74510;SDS011;62991;50.040;18.400;2023-06-22T05:37:36;21.10;;;10.80;;
74510;SDS011;62991;50.040;18.400;2023-06-22T05:40:37;25.80;;;11.18;;
74510;SDS011;62991;50.040;18.400;2023-06-22T05:43:37;23.95;;;11.52;;
74510;SDS011;62991;50.040;18.400;2023-06-22T05:46:42;33.95;;;13.40;;
74510;SDS011;62991;50.040;18.400;2023-06-22T05:49:48;29.95;;;12.07;;
74510;SDS011;62991;50.040;18.400;2023-06-22T05:52:48;26.88;;;12.57;;
74510;SDS011;62991;50.040;18.400;2023-06-22T05:55:49;26.90;;;13.85;;
74510;SDS011;62991;50.040;18.400;2023-06-22T05:58:50;29.90;;;13.10;;
74510;SDS011;62991;50.040;18.400;2023-06-22T06:01:51;41.38;;;15.15;;
74510;SDS011;62991;50.040;18.400;2023-06-22T06:04:51;77.00;;;20.20;;
74510;SDS011;62991;50.040;18.400;2023-06-22T06:07:52;60.28;;;19.70;;
74510;SDS011;62991;50.040;18.400;2023-06-22T06:10:53;33.92;;;13.80;;
74510;SDS011;62991;50.040;18.400;2023-06-22T06:13:55;31.80;;;13.45;;
74510;SDS011;62991;50.040;18.400;2023-06-22T06:16:55;25.17;;;11.73;;
74510;SDS011;62991;50.040;18.400;2023-06-22T06:19:56;50.10;;;16.45;;
74510;SDS011;62991;50.040;18.400;2023-06-22T06:22:58;31.23;;;12.52;;
74510;SDS011;62991;50.040;18.400;2023-06-22T06:25:59;59.22;;;18.02;;
74510;SDS011;62991;50.040;18.400;2023-06-22T06:29:01;115.57;;;28.45;;
74510;SDS011;62991;50.040;18.400;2023-06-22T06:32:02;46.88;;;16.08;;
74510;SDS011;62991;50.040;18.400;2023-06-22T06:35:07;46.15;;;14.48;;
74510;SDS011;62991;50.040;18.400;2023-06-22T06:38:08;26.80;;;12.40;;
74510;SDS011;62991;50.040;18.400;2023-06-22T06:41:09;24.50;;;11.95;;
74510;SDS011;62991;50.040;18.400;2023-06-22T06:44:10;21.20;;;11.30;;
74510;SDS011;62991;50.040;18.400;2023-06-22T06:47:11;24.23;;;10.77;;
74510;SDS011;62991;50.040;18.400;2023-06-22T06:50:11;22.55;;;12.10;;
74510;SDS011;62991;50.040;18.400;2023-06-22T06:53:12;18.95;;;11.07;;
74510;SDS011;62991;50.040;18.400;2023-06-22T06:56:13;23.35;;;11.35;;
74510;SDS011;62991;50.040;18.400;2023-06-22T06:59:14;20.13;;;10.50;;
74510;SDS011;62991;50.040;18.400;2023-06-22T07:02:15;20.75;;;10.13;;
74510;SDS011;62991;50.040;18.400;2023-06-22T07:05:16;23.85;;;10.95;;
74510;SDS011;62991;50.040;18.400;2023-06-22T07:08:17;20.92;;;11.02;;
74510;SDS011;62991;50.040;18.400;2023-06-22T07:11:17;19.23;;;10.55;;
74510;SDS011;62991;50.040;18.400;2023-06-22T07:14:18;21.23;;;10.85;;
74510;SDS011;62991;50.040;18.400;2023-06-22T07:17:19;20.90;;;11.20;;
74510;SDS011;62991;50.040;18.400;2023-06-22T07:20:19;17.10;;;10.57;;
74510;SDS011;62991;50.040;18.400;2023-06-22T07:23:20;19.38;;;10.98;;
74510;SDS011;62991;50.040;18.400;2023-06-22T07:26:21;18.75;;;10.68;;
74510;SDS011;62991;50.040;18.400;2023-06-22T07:29:21;18.85;;;10.10;;
74510;SDS011;62991;50.040;18.400;2023-06-22T07:32:22;20.83;;;10.10;;
74510;SDS011;62991;50.040;18.400;2023-06-22T07:35:23;19.35;;;10.88;;
74510;SDS011;62991;50.040;18.400;2023-06-22T07:38:24;17.33;;;9.95;;
74510;SDS011;62991;50.040;18.400;2023-06-22T07:41:25;18.75;;;10.73;;
74510;SDS011;62991;50.040;18.400;2023-06-22T07:44:25;17.65;;;9.18;;
74510;SDS011;62991;50.040;18.400;2023-06-22T07:47:26;20.73;;;10.80;;
74510;SDS011;62991;50.040;18.400;2023-06-22T07:50:28;18.52;;;10.05;;
74510;SDS011;62991;50.040;18.400;2023-06-22T07:53:28;19.55;;;9.95;;
74510;SDS011;62991;50.040;18.400;2023-06-22T07:56:29;17.85;;;10.07;;
74510;SDS011;62991;50.040;18.400;2023-06-22T07:59:30;18.58;;;10.02;;
74510;SDS011;62991;50.040;18.400;2023-06-22T08:02:30;18.13;;;10.18;;
74510;SDS011;62991;50.040;18.400;2023-06-22T08:05:31;19.38;;;11.25;;
74510;SDS011;62991;50.040;18.400;2023-06-22T08:08:32;17.40;;;9.60;;
74510;SDS011;62991;50.040;18.400;2023-06-22T08:11:32;20.45;;;9.63;;
74510;SDS011;62991;50.040;18.400;2023-06-22T08:14:34;19.27;;;9.82;;
74510;SDS011;62991;50.040;18.400;2023-06-22T08:17:38;17.63;;;9.95;;
74510;SDS011;62991;50.040;18.400;2023-06-22T08:20:38;20.10;;;11.80;;
74510;SDS011;62991;50.040;18.400;2023-06-22T08:23:39;21.70;;;10.82;;
74510;SDS011;62991;50.040;18.400;2023-06-22T08:26:40;16.67;;;10.13;;
74510;SDS011;62991;50.040;18.400;2023-06-22T08:29:40;20.55;;;10.63;;
74510;SDS011;62991;50.040;18.400;2023-06-22T08:32:42;16.58;;;9.32;;
74510;SDS011;62991;50.040;18.400;2023-06-22T08:35:42;17.38;;;9.02;;
74510;SDS011;62991;50.040;18.400;2023-06-22T08:38:43;15.73;;;8.88;;
74510;SDS011;62991;50.040;18.400;2023-06-22T08:41:45;16.48;;;8.77;;
74510;SDS011;62991;50.040;18.400;2023-06-22T08:44:46;14.45;;;8.38;;
74510;SDS011;62991;50.040;18.400;2023-06-22T08:47:46;13.80;;;7.75;;
74510;SDS011;62991;50.040;18.400;2023-06-22T08:50:47;14.52;;;8.32;;
74510;SDS011;62991;50.040;18.400;2023-06-22T08:53:48;14.95;;;7.72;;
74510;SDS011;62991;50.040;18.400;2023-06-22T08:56:48;15.38;;;8.50;;
74510;SDS011;62991;50.040;18.400;2023-06-22T08:59:49;16.60;;;9.20;;
74510;SDS011;62991;50.040;18.400;2023-06-22T09:02:52;15.40;;;8.63;;
74510;SDS011;62991;50.040;18.400;2023-06-22T09:05:53;15.20;;;8.38;;
74510;SDS011;62991;50.040;18.400;2023-06-22T09:08:54;14.30;;;7.97;;
74510;SDS011;62991;50.040;18.400;2023-06-22T09:11:55;14.23;;;8.95;;
74510;SDS011;62991;50.040;18.400;2023-06-22T09:14:56;14.60;;;8.23;;
74510;SDS011;62991;50.040;18.400;2023-06-22T09:17:56;16.15;;;8.55;;
74510;SDS011;62991;50.040;18.400;2023-06-22T09:20:57;14.10;;;8.45;;
74510;SDS011;62991;50.040;18.400;2023-06-22T09:23:58;12.73;;;7.35;;
74510;SDS011;62991;50.040;18.400;2023-06-22T09:26:59;16.08;;;9.07;;
74510;SDS011;62991;50.040;18.400;2023-06-22T09:29:59;15.20;;;8.70;;
74510;SDS011;62991;50.040;18.400;2023-06-22T09:33:00;14.13;;;8.20;;
74510;SDS011;62991;50.040;18.400;2023-06-22T09:36:02;14.20;;;8.38;;
74510;SDS011;62991;50.040;18.400;2023-06-22T09:39:03;15.23;;;7.93;;
74510;SDS011;62991;50.040;18.400;2023-06-22T09:42:06;14.73;;;8.18;;
74510;SDS011;62991;50.040;18.400;2023-06-22T09:45:07;13.63;;;7.75;;
74510;SDS011;62991;50.040;18.400;2023-06-22T09:48:08;12.20;;;7.53;;
74510;SDS011;62991;50.040;18.400;2023-06-22T09:51:09;12.85;;;7.85;;
74510;SDS011;62991;50.040;18.400;2023-06-22T09:54:10;11.10;;;7.70;;
74510;SDS011;62991;50.040;18.400;2023-06-22T09:57:11;12.02;;;6.85;;
74510;SDS011;62991;50.040;18.400;2023-06-22T10:00:12;12.93;;;7.07;;
74510;SDS011;62991;50.040;18.400;2023-06-22T10:03:13;14.50;;;7.50;;
74510;SDS011;62991;50.040;18.400;2023-06-22T10:06:14;11.80;;;7.07;;
74510;SDS011;62991;50.040;18.400;2023-06-22T10:09:15;12.52;;;7.00;;
74510;SDS011;62991;50.040;18.400;2023-06-22T10:12:15;10.63;;;6.57;;
74510;SDS011;62991;50.040;18.400;2023-06-22T10:15:16;15.25;;;7.07;;
74510;SDS011;62991;50.040;18.400;2023-06-22T10:18:19;13.02;;;6.75;;
74510;SDS011;62991;50.040;18.400;2023-06-22T10:21:20;11.77;;;6.80;;
74510;SDS011;62991;50.040;18.400;2023-06-22T10:24:21;11.30;;;6.93;;
74510;SDS011;62991;50.040;18.400;2023-06-22T10:27:22;15.23;;;7.70;;
74510;SDS011;62991;50.040;18.400;2023-06-22T10:30:22;12.60;;;6.70;;
74510;SDS011;62991;50.040;18.400;2023-06-22T10:33:23;14.02;;;6.28;;
74510;SDS011;62991;50.040;18.400;2023-06-22T10:36:24;12.20;;;6.57;;
74510;SDS011;62991;50.040;18.400;2023-06-22T10:39:24;11.65;;;7.13;;
74510;SDS011;62991;50.040;18.400;2023-06-22T10:42:31;10.93;;;6.35;;
74510;SDS011;62991;50.040;18.400;2023-06-22T10:45:31;13.50;;;6.70;;
74510;SDS011;62991;50.040;18.400;2023-06-22T10:48:32;11.55;;;6.80;;
74510;SDS011;62991;50.040;18.400;2023-06-22T10:51:33;11.20;;;6.88;;
74510;SDS011;62991;50.040;18.400;2023-06-22T10:54:34;10.43;;;6.45;;
74510;SDS011;62991;50.040;18.400;2023-06-22T10:57:35;10.23;;;6.00;;
74510;SDS011;62991;50.040;18.400;2023-06-22T11:00:36;10.75;;;6.00;;
74510;SDS011;62991;50.040;18.400;2023-06-22T11:03:37;11.15;;;6.38;;
74510;SDS011;62991;50.040;18.400;2023-06-22T11:06:38;9.65;;;6.30;;
74510;SDS011;62991;50.040;18.400;2023-06-22T11:09:39;14.50;;;7.20;;
74510;SDS011;62991;50.040;18.400;2023-06-22T11:12:39;10.27;;;6.15;;
74510;SDS011;62991;50.040;18.400;2023-06-22T11:15:40;10.43;;;6.78;;
74510;SDS011;62991;50.040;18.400;2023-06-22T11:18:41;11.13;;;6.45;;
74510;SDS011;62991;50.040;18.400;2023-06-22T11:21:42;9.05;;;5.88;;
74510;SDS011;62991;50.040;18.400;2023-06-22T11:24:42;10.63;;;6.50;;
74510;SDS011;62991;50.040;18.400;2023-06-22T11:27:43;9.95;;;6.00;;
74510;SDS011;62991;50.040;18.400;2023-06-22T11:30:44;11.07;;;6.55;;
74510;SDS011;62991;50.040;18.400;2023-06-22T11:33:44;7.93;;;5.50;;
74510;SDS011;62991;50.040;18.400;2023-06-22T11:36:47;9.13;;;5.82;;
74510;SDS011;62991;50.040;18.400;2023-06-22T11:39:48;8.75;;;5.75;;
74510;SDS011;62991;50.040;18.400;2023-06-22T11:42:48;10.32;;;6.30;;
74510;SDS011;62991;50.040;18.400;2023-06-22T11:45:49;9.20;;;6.00;;
74510;SDS011;62991;50.040;18.400;2023-06-22T11:48:50;9.65;;;5.90;;
74510;SDS011;62991;50.040;18.400;2023-06-22T11:51:51;10.10;;;6.20;;
74510;SDS011;62991;50.040;18.400;2023-06-22T11:54:51;9.82;;;5.60;;
74510;SDS011;62991;50.040;18.400;2023-06-22T11:57:54;10.38;;;5.72;;
74510;SDS011;62991;50.040;18.400;2023-06-22T12:00:56;12.43;;;6.13;;
74510;SDS011;62991;50.040;18.400;2023-06-22T12:03:57;9.30;;;5.47;;
74510;SDS011;62991;50.040;18.400;2023-06-22T12:07:12;9.23;;;5.20;;
74510;SDS011;62991;50.040;18.400;2023-06-22T12:10:17;9.95;;;5.88;;
74510;SDS011;62991;50.040;18.400;2023-06-22T12:13:18;9.13;;;5.60;;
74510;SDS011;62991;50.040;18.400;2023-06-22T12:16:18;8.80;;;5.32;;
74510;SDS011;62991;50.040;18.400;2023-06-22T12:19:21;8.95;;;5.53;;
74510;SDS011;62991;50.040;18.400;2023-06-22T12:22:22;8.18;;;4.93;;
74510;SDS011;62991;50.040;18.400;2023-06-22T12:25:22;9.82;;;5.20;;
74510;SDS011;62991;50.040;18.400;2023-06-22T12:28:23;8.80;;;5.22;;
74510;SDS011;62991;50.040;18.400;2023-06-22T12:31:24;9.18;;;5.07;;
74510;SDS011;62991;50.040;18.400;2023-06-22T12:34:24;9.73;;;5.55;;
74510;SDS011;62991;50.040;18.400;2023-06-22T12:37:25;9.93;;;5.50;;
74510;SDS011;62991;50.040;18.400;2023-06-22T12:40:26;10.00;;;5.38;;
74510;SDS011;62991;50.040;18.400;2023-06-22T12:43:26;8.75;;;5.95;;
74510;SDS011;62991;50.040;18.400;2023-06-22T12:46:27;8.80;;;5.70;;
74510;SDS011;62991;50.040;18.400;2023-06-22T12:49:29;10.75;;;6.18;;
74510;SDS011;62991;50.040;18.400;2023-06-22T12:52:30;10.63;;;5.30;;
74510;SDS011;62991;50.040;18.400;2023-06-22T12:55:34;10.68;;;5.55;;
74510;SDS011;62991;50.040;18.400;2023-06-22T12:58:34;8.15;;;4.97;;
74510;SDS011;62991;50.040;18.400;2023-06-22T13:01:35;9.02;;;5.47;;
74510;SDS011;62991;50.040;18.400;2023-06-22T13:04:37;8.93;;;5.35;;
74510;SDS011;62991;50.040;18.400;2023-06-22T13:07:37;8.02;;;5.20;;
74510;SDS011;62991;50.040;18.400;2023-06-22T13:10:38;10.45;;;5.43;;
74510;SDS011;62991;50.040;18.400;2023-06-22T13:13:39;8.02;;;5.20;;
74510;SDS011;62991;50.040;18.400;2023-06-22T13:16:40;7.68;;;5.10;;
74510;SDS011;62991;50.040;18.400;2023-06-22T13:19:41;11.48;;;5.32;;
74510;SDS011;62991;50.040;18.400;2023-06-22T13:22:42;8.00;;;5.53;;
74510;SDS011;62991;50.040;18.400;2023-06-22T13:25:43;8.15;;;5.18;;
74510;SDS011;62991;50.040;18.400;2023-06-22T13:28:44;7.47;;;4.95;;
74510;SDS011;62991;50.040;18.400;2023-06-22T13:31:45;9.25;;;5.28;;
74510;SDS011;62991;50.040;18.400;2023-06-22T13:34:45;7.97;;;4.97;;
74510;SDS011;62991;50.040;18.400;2023-06-22T13:37:46;8.73;;;5.53;;
74510;SDS011;62991;50.040;18.400;2023-06-22T13:40:47;9.00;;;5.53;;
74510;SDS011;62991;50.040;18.400;2023-06-22T13:43:48;8.80;;;6.00;;
74510;SDS011;62991;50.040;18.400;2023-06-22T13:46:49;7.45;;;5.50;;
74510;SDS011;62991;50.040;18.400;2023-06-22T13:49:49;9.38;;;5.70;;
74510;SDS011;62991;50.040;18.400;2023-06-22T13:52:50;8.73;;;5.45;;
74510;SDS011;62991;50.040;18.400;2023-06-22T13:55:51;9.23;;;5.15;;
74510;SDS011;62991;50.040;18.400;2023-06-22T13:58:51;9.95;;;5.60;;
74510;SDS011;62991;50.040;18.400;2023-06-22T14:01:52;8.27;;;5.20;;
74510;SDS011;62991;50.040;18.400;2023-06-22T14:04:53;7.40;;;4.85;;
74510;SDS011;62991;50.040;18.400;2023-06-22T14:07:53;8.55;;;5.25;;
74510;SDS011;62991;50.040;18.400;2023-06-22T14:10:54;8.48;;;5.95;;
74510;SDS011;62991;50.040;18.400;2023-06-22T14:13:55;8.38;;;5.35;;
74510;SDS011;62991;50.040;18.400;2023-06-22T14:16:55;8.68;;;5.57;;
74510;SDS011;62991;50.040;18.400;2023-06-22T14:19:56;10.57;;;5.13;;
74510;SDS011;62991;50.040;18.400;2023-06-22T14:22:57;9.90;;;5.13;;
74510;SDS011;62991;50.040;18.400;2023-06-22T14:25:58;8.48;;;5.47;;
74510;SDS011;62991;50.040;18.400;2023-06-22T14:28:58;7.80;;;4.82;;
74510;SDS011;62991;50.040;18.400;2023-06-22T14:31:59;7.65;;;5.15;;
74510;SDS011;62991;50.040;18.400;2023-06-22T14:35:00;8.15;;;5.35;;
74510;SDS011;62991;50.040;18.400;2023-06-22T14:38:00;7.53;;;4.97;;
74510;SDS011;62991;50.040;18.400;2023-06-22T14:41:01;9.00;;;5.63;;
74510;SDS011;62991;50.040;18.400;2023-06-22T14:44:02;9.52;;;5.60;;
74510;SDS011;62991;50.040;18.400;2023-06-22T14:47:03;7.78;;;5.28;;
74510;SDS011;62991;50.040;18.400;2023-06-22T14:50:04;9.32;;;5.25;;
74510;SDS011;62991;50.040;18.400;2023-06-22T14:53:04;9.55;;;5.55;;
74510;SDS011;62991;50.040;18.400;2023-06-22T14:56:05;8.77;;;5.60;;
74510;SDS011;62991;50.040;18.400;2023-06-22T14:59:06;8.00;;;5.13;;
74510;SDS011;62991;50.040;18.400;2023-06-22T15:02:07;8.23;;;5.07;;
74510;SDS011;62991;50.040;18.400;2023-06-22T15:05:07;8.20;;;5.43;;
74510;SDS011;62991;50.040;18.400;2023-06-22T15:08:08;8.38;;;4.90;;
74510;SDS011;62991;50.040;18.400;2023-06-22T15:11:09;11.65;;;5.63;;
74510;SDS011;62991;50.040;18.400;2023-06-22T15:14:10;7.03;;;4.65;;
74510;SDS011;62991;50.040;18.400;2023-06-22T15:17:14;6.90;;;4.50;;
74510;SDS011;62991;50.040;18.400;2023-06-22T15:20:15;8.00;;;4.90;;
74510;SDS011;62991;50.040;18.400;2023-06-22T15:23:16;8.88;;;5.07;;
74510;SDS011;62991;50.040;18.400;2023-06-22T15:26:17;7.47;;;4.53;;
74510;SDS011;62991;50.040;18.400;2023-06-22T15:29:18;8.70;;;4.82;;
74510;SDS011;62991;50.040;18.400;2023-06-22T15:32:19;6.57;;;4.45;;
74510;SDS011;62991;50.040;18.400;2023-06-22T15:35:19;7.88;;;4.82;;
74510;SDS011;62991;50.040;18.400;2023-06-22T15:38:20;7.97;;;4.53;;
74510;SDS011;62991;50.040;18.400;2023-06-22T15:41:21;10.60;;;4.88;;
74510;SDS011;62991;50.040;18.400;2023-06-22T15:44:23;7.57;;;5.18;;
74510;SDS011;62991;50.040;18.400;2023-06-22T15:47:24;9.88;;;5.40;;
74510;SDS011;62991;50.040;18.400;2023-06-22T15:50:24;6.82;;;4.68;;
74510;SDS011;62991;50.040;18.400;2023-06-22T15:53:25;8.38;;;5.93;;
74510;SDS011;62991;50.040;18.400;2023-06-22T15:56:26;8.00;;;5.40;;
74510;SDS011;62991;50.040;18.400;2023-06-22T15:59:26;8.55;;;5.25;;
74510;SDS011;62991;50.040;18.400;2023-06-22T16:02:27;10.25;;;5.70;;
74510;SDS011;62991;50.040;18.400;2023-06-22T16:05:28;9.25;;;5.40;;
74510;SDS011;62991;50.040;18.400;2023-06-22T16:08:28;8.90;;;5.35;;
74510;SDS011;62991;50.040;18.400;2023-06-22T16:11:31;8.20;;;5.65;;
74510;SDS011;62991;50.040;18.400;2023-06-22T16:14:31;8.48;;;5.32;;
74510;SDS011;62991;50.040;18.400;2023-06-22T16:17:32;8.73;;;5.78;;
74510;SDS011;62991;50.040;18.400;2023-06-22T16:20:38;9.23;;;5.03;;
74510;SDS011;62991;50.040;18.400;2023-06-22T16:23:38;7.55;;;5.05;;
74510;SDS011;62991;50.040;18.400;2023-06-22T16:26:40;8.82;;;5.55;;
74510;SDS011;62991;50.040;18.400;2023-06-22T16:29:41;8.18;;;5.25;;
74510;SDS011;62991;50.040;18.400;2023-06-22T16:32:55;8.10;;;5.13;;
74510;SDS011;62991;50.040;18.400;2023-06-22T16:36:01;7.72;;;5.10;;
74510;SDS011;62991;50.040;18.400;2023-06-22T16:39:02;9.40;;;5.07;;
74510;SDS011;62991;50.040;18.400;2023-06-22T16:42:03;8.43;;;5.25;;
74510;SDS011;62991;50.040;18.400;2023-06-22T16:45:04;8.07;;;4.95;;
74510;SDS011;62991;50.040;18.400;2023-06-22T16:48:05;8.95;;;4.97;;
74510;SDS011;62991;50.040;18.400;2023-06-22T16:51:06;8.55;;;4.88;;
74510;SDS011;62991;50.040;18.400;2023-06-22T16:54:07;8.43;;;4.88;;
74510;SDS011;62991;50.040;18.400;2023-06-22T16:57:08;9.50;;;5.35;;
74510;SDS011;62991;50.040;18.400;2023-06-22T17:00:09;7.72;;;5.30;;
74510;SDS011;62991;50.040;18.400;2023-06-22T17:03:14;8.75;;;5.03;;
74510;SDS011;62991;50.040;18.400;2023-06-22T17:06:20;7.90;;;4.97;;
74510;SDS011;62991;50.040;18.400;2023-06-22T17:09:22;9.10;;;4.85;;
74510;SDS011;62991;50.040;18.400;2023-06-22T17:12:26;7.68;;;4.70;;
74510;SDS011;62991;50.040;18.400;2023-06-22T17:15:27;7.57;;;4.63;;
74510;SDS011;62991;50.040;18.400;2023-06-22T17:18:30;7.07;;;4.43;;
74510;SDS011;62991;50.040;18.400;2023-06-22T17:21:32;7.20;;;4.32;;
74510;SDS011;62991;50.040;18.400;2023-06-22T17:24:33;6.28;;;4.72;;
74510;SDS011;62991;50.040;18.400;2023-06-22T17:27:35;9.32;;;5.40;;
74510;SDS011;62991;50.040;18.400;2023-06-22T17:30:36;7.72;;;5.00;;
74510;SDS011;62991;50.040;18.400;2023-06-22T17:33:37;9.38;;;5.22;;
74510;SDS011;62991;50.040;18.400;2023-06-22T17:39:51;8.77;;;5.18;;
74510;SDS011;62991;50.040;18.400;2023-06-22T17:43:02;7.57;;;4.78;;
74510;SDS011;62991;50.040;18.400;2023-06-22T17:46:10;10.02;;;4.90;;
74510;SDS011;62991;50.040;18.400;2023-06-22T17:49:11;11.23;;;4.85;;
74510;SDS011;62991;50.040;18.400;2023-06-22T17:52:18;9.20;;;5.20;;
74510;SDS011;62991;50.040;18.400;2023-06-22T17:55:20;9.00;;;5.60;;
74510;SDS011;62991;50.040;18.400;2023-06-22T17:58:22;12.15;;;4.68;;